sensor_id;sensor_type;location;lat;lon;timestamp;temperature;humidity
68556;HTU21D;55544;51.032;5.866;2023-08-08T00:00:38;15.78;73.61
68556;HTU21D;55544;51.032;5.866;2023-08-08T00:03:04;15.71;73.82
68556;HTU21D;55544;51.032;5.866;2023-08-08T00:05:30;15.69;74.00
68556;HTU21D;55544;51.032;5.866;2023-08-08T00:07:55;15.66;74.10
68556;HTU21D;55544;51.032;5.866;2023-08-08T00:10:21;15.65;74.19
68556;HTU21D;55544;51.032;5.866;2023-08-08T00:12:47;15.61;74.41
68556;HTU21D;55544;51.032;5.866;2023-08-08T00:15:13;15.60;74.53
68556;HTU21D;55544;51.032;5.866;2023-08-08T00:17:38;15.61;74.50
68556;HTU21D;55544;51.032;5.866;2023-08-08T00:20:05;15.65;74.54
68556;HTU21D;55544;51.032;5.866;2023-08-08T00:22:30;15.62;74.59
68556;HTU21D;55544;51.032;5.866;2023-08-08T00:24:56;15.66;74.60
68556;HTU21D;55544;51.032;5.866;2023-08-08T00:27:22;15.63;74.74
68556;HTU21D;55544;51.032;5.866;2023-08-08T00:29:48;15.59;74.96
68556;HTU21D;55544;51.032;5.866;2023-08-08T00:32:14;15.60;75.12
68556;HTU21D;55544;51.032;5.866;2023-08-08T00:34:39;15.60;75.16
68556;HTU21D;55544;51.032;5.866;2023-08-08T00:37:05;15.61;75.25
68556;HTU21D;55544;51.032;5.866;2023-08-08T00:39:31;15.62;75.26
68556;HTU21D;55544;51.032;5.866;2023-08-08T00:41:56;15.62;75.25
68556;HTU21D;55544;51.032;5.866;2023-08-08T00:44:22;15.62;75.41
68556;HTU21D;55544;51.032;5.866;2023-08-08T00:46:48;15.59;75.70
68556;HTU21D;55544;51.032;5.866;2023-08-08T00:49:14;15.62;75.47
68556;HTU21D;55544;51.032;5.866;2023-08-08T00:51:40;15.55;75.64
68556;HTU21D;55544;51.032;5.866;2023-08-08T00:54:07;15.54;75.72
68556;HTU21D;55544;51.032;5.866;2023-08-08T00:56:33;15.51;75.89
68556;HTU21D;55544;51.032;5.866;2023-08-08T00:59:00;15.53;75.62
68556;HTU21D;55544;51.032;5.866;2023-08-08T01:01:25;15.43;75.89
68556;HTU21D;55544;51.032;5.866;2023-08-08T01:03:51;15.37;76.08
68556;HTU21D;55544;51.032;5.866;2023-08-08T01:06:27;15.38;76.10
68556;HTU21D;55544;51.032;5.866;2023-08-08T01:11:42;15.27;76.42
68556;HTU21D;55544;51.032;5.866;2023-08-08T01:14:10;15.26;76.47
68556;HTU21D;55544;51.032;5.866;2023-08-08T01:16:37;15.19;76.70
68556;HTU21D;55544;51.032;5.866;2023-08-08T01:19:06;15.23;76.60
68556;HTU21D;55544;51.032;5.866;2023-08-08T01:21:37;15.13;76.89
68556;HTU21D;55544;51.032;5.866;2023-08-08T01:26:45;15.10;77.17
68556;HTU21D;55544;51.032;5.866;2023-08-08T01:29:11;15.09;77.21
68556;HTU21D;55544;51.032;5.866;2023-08-08T01:31:37;15.02;77.40
68556;HTU21D;55544;51.032;5.866;2023-08-08T01:34:04;15.04;77.48
68556;HTU21D;55544;51.032;5.866;2023-08-08T01:36:55;15.01;77.73
68556;HTU21D;55544;51.032;5.866;2023-08-08T01:39:25;14.98;77.92
68556;HTU21D;55544;51.032;5.866;2023-08-08T01:41:54;15.02;77.78
68556;HTU21D;55544;51.032;5.866;2023-08-08T01:44:21;15.00;77.98
68556;HTU21D;55544;51.032;5.866;2023-08-08T01:46:48;14.99;78.11
68556;HTU21D;55544;51.032;5.866;2023-08-08T01:49:14;15.02;78.11
68556;HTU21D;55544;51.032;5.866;2023-08-08T01:51:40;14.98;78.25
68556;HTU21D;55544;51.032;5.866;2023-08-08T01:54:08;14.98;78.22
68556;HTU21D;55544;51.032;5.866;2023-08-08T01:56:33;14.97;78.37
68556;HTU21D;55544;51.032;5.866;2023-08-08T01:59:00;14.93;78.43
68556;HTU21D;55544;51.032;5.866;2023-08-08T02:01:27;14.95;78.49
68556;HTU21D;55544;51.032;5.866;2023-08-08T02:03:53;14.92;78.62
68556;HTU21D;55544;51.032;5.866;2023-08-08T02:06:18;14.93;78.62
68556;HTU21D;55544;51.032;5.866;2023-08-08T02:08:45;14.91;78.79
68556;HTU21D;55544;51.032;5.866;2023-08-08T02:11:11;14.88;78.87
68556;HTU21D;55544;51.032;5.866;2023-08-08T02:13:37;14.86;79.12
68556;HTU21D;55544;51.032;5.866;2023-08-08T02:16:03;14.88;79.20
68556;HTU21D;55544;51.032;5.866;2023-08-08T02:18:29;14.88;79.17
68556;HTU21D;55544;51.032;5.866;2023-08-08T02:20:55;14.83;79.55
68556;HTU21D;55544;51.032;5.866;2023-08-08T02:23:21;14.84;79.52
68556;HTU21D;55544;51.032;5.866;2023-08-08T02:25:46;14.85;79.69
68556;HTU21D;55544;51.032;5.866;2023-08-08T02:28:12;14.84;79.73
68556;HTU21D;55544;51.032;5.866;2023-08-08T02:30:38;14.86;79.87
68556;HTU21D;55544;51.032;5.866;2023-08-08T02:33:04;14.80;80.14
68556;HTU21D;55544;51.032;5.866;2023-08-08T02:35:29;14.81;80.43
68556;HTU21D;55544;51.032;5.866;2023-08-08T02:37:55;14.84;80.27
68556;HTU21D;55544;51.032;5.866;2023-08-08T02:40:21;14.81;80.56
68556;HTU21D;55544;51.032;5.866;2023-08-08T02:42:49;14.83;80.62
68556;HTU21D;55544;51.032;5.866;2023-08-08T02:45:16;14.82;80.91
68556;HTU21D;55544;51.032;5.866;2023-08-08T02:47:41;14.79;80.97
68556;HTU21D;55544;51.032;5.866;2023-08-08T02:50:08;14.77;81.15
68556;HTU21D;55544;51.032;5.866;2023-08-08T02:52:33;14.75;81.31
68556;HTU21D;55544;51.032;5.866;2023-08-08T02:54:59;14.75;81.36
68556;HTU21D;55544;51.032;5.866;2023-08-08T02:57:25;14.70;81.66
68556;HTU21D;55544;51.032;5.866;2023-08-08T02:59:53;14.71;81.77
68556;HTU21D;55544;51.032;5.866;2023-08-08T03:02:19;14.70;81.87
68556;HTU21D;55544;51.032;5.866;2023-08-08T03:04:45;14.68;82.01
68556;HTU21D;55544;51.032;5.866;2023-08-08T03:07:11;14.69;82.06
68556;HTU21D;55544;51.032;5.866;2023-08-08T03:09:37;14.68;82.44
68556;HTU21D;55544;51.032;5.866;2023-08-08T03:12:03;14.62;82.74
68556;HTU21D;55544;51.032;5.866;2023-08-08T03:14:31;14.67;82.42
68556;HTU21D;55544;51.032;5.866;2023-08-08T03:16:59;14.68;82.58
68556;HTU21D;55544;51.032;5.866;2023-08-08T03:19:25;14.63;82.92
68556;HTU21D;55544;51.032;5.866;2023-08-08T03:21:51;14.62;82.94
68556;HTU21D;55544;51.032;5.866;2023-08-08T03:24:17;14.64;83.04
68556;HTU21D;55544;51.032;5.866;2023-08-08T03:26:43;14.63;83.15
68556;HTU21D;55544;51.032;5.866;2023-08-08T03:29:09;14.60;83.44
68556;HTU21D;55544;51.032;5.866;2023-08-08T03:31:40;14.58;83.42
68556;HTU21D;55544;51.032;5.866;2023-08-08T03:34:05;14.56;83.55
68556;HTU21D;55544;51.032;5.866;2023-08-08T03:36:33;14.57;83.75
68556;HTU21D;55544;51.032;5.866;2023-08-08T03:38:59;14.56;83.80
68556;HTU21D;55544;51.032;5.866;2023-08-08T03:41:24;14.63;83.57
68556;HTU21D;55544;51.032;5.866;2023-08-08T03:43:50;14.60;83.55
68556;HTU21D;55544;51.032;5.866;2023-08-08T03:46:17;14.63;83.49
68556;HTU21D;55544;51.032;5.866;2023-08-08T03:48:43;14.66;83.57
68556;HTU21D;55544;51.032;5.866;2023-08-08T03:51:09;14.63;83.72
68556;HTU21D;55544;51.032;5.866;2023-08-08T03:53:34;14.62;83.76
68556;HTU21D;55544;51.032;5.866;2023-08-08T03:56:00;14.64;83.81
68556;HTU21D;55544;51.032;5.866;2023-08-08T03:58:26;14.65;83.46
68556;HTU21D;55544;51.032;5.866;2023-08-08T04:00:51;14.65;83.48
68556;HTU21D;55544;51.032;5.866;2023-08-08T04:03:18;14.62;83.60
68556;HTU21D;55544;51.032;5.866;2023-08-08T04:05:45;14.62;83.83
68556;HTU21D;55544;51.032;5.866;2023-08-08T04:08:15;14.60;84.11
68556;HTU21D;55544;51.032;5.866;2023-08-08T04:10:42;14.59;83.99
68556;HTU21D;55544;51.032;5.866;2023-08-08T04:13:09;14.59;83.86
68556;HTU21D;55544;51.032;5.866;2023-08-08T04:15:35;14.57;84.02
68556;HTU21D;55544;51.032;5.866;2023-08-08T04:18:01;14.58;83.94
68556;HTU21D;55544;51.032;5.866;2023-08-08T04:20:26;14.53;84.13
68556;HTU21D;55544;51.032;5.866;2023-08-08T04:22:52;14.53;84.11
68556;HTU21D;55544;51.032;5.866;2023-08-08T04:25:18;14.54;84.21
68556;HTU21D;55544;51.032;5.866;2023-08-08T04:27:44;14.55;84.29
68556;HTU21D;55544;51.032;5.866;2023-08-08T04:30:10;14.55;84.07
68556;HTU21D;55544;51.032;5.866;2023-08-08T04:32:36;14.51;84.20
68556;HTU21D;55544;51.032;5.866;2023-08-08T04:35:02;14.49;84.41
68556;HTU21D;55544;51.032;5.866;2023-08-08T04:37:27;14.50;84.28
68556;HTU21D;55544;51.032;5.866;2023-08-08T04:39:53;14.44;84.32
68556;HTU21D;55544;51.032;5.866;2023-08-08T04:42:19;14.49;84.33
68556;HTU21D;55544;51.032;5.866;2023-08-08T04:44:44;14.43;84.56
68556;HTU21D;55544;51.032;5.866;2023-08-08T04:47:10;14.41;84.62
68556;HTU21D;55544;51.032;5.866;2023-08-08T04:49:36;14.47;84.57
68556;HTU21D;55544;51.032;5.866;2023-08-08T04:52:01;14.47;84.60
68556;HTU21D;55544;51.032;5.866;2023-08-08T04:54:27;14.43;84.97
68556;HTU21D;55544;51.032;5.866;2023-08-08T04:56:53;14.45;84.78
68556;HTU21D;55544;51.032;5.866;2023-08-08T04:59:18;14.47;84.79
68556;HTU21D;55544;51.032;5.866;2023-08-08T05:01:44;14.50;84.88
68556;HTU21D;55544;51.032;5.866;2023-08-08T05:04:10;14.44;85.03
68556;HTU21D;55544;51.032;5.866;2023-08-08T05:06:35;14.43;85.09
68556;HTU21D;55544;51.032;5.866;2023-08-08T05:09:01;14.47;85.08
68556;HTU21D;55544;51.032;5.866;2023-08-08T05:11:27;14.47;85.32
68556;HTU21D;55544;51.032;5.866;2023-08-08T05:13:52;14.45;85.57
68556;HTU21D;55544;51.032;5.866;2023-08-08T05:16:18;14.49;85.35
68556;HTU21D;55544;51.032;5.866;2023-08-08T05:18:44;14.57;85.38
68556;HTU21D;55544;51.032;5.866;2023-08-08T05:21:11;14.59;85.22
68556;HTU21D;55544;51.032;5.866;2023-08-08T05:23:36;14.57;85.24
68556;HTU21D;55544;51.032;5.866;2023-08-08T05:26:02;14.60;85.01
68556;HTU21D;55544;51.032;5.866;2023-08-08T05:28:29;14.56;85.21
68556;HTU21D;55544;51.032;5.866;2023-08-08T05:30:54;14.64;84.96
68556;HTU21D;55544;51.032;5.866;2023-08-08T05:33:22;14.64;84.96
68556;HTU21D;55544;51.032;5.866;2023-08-08T05:35:48;14.63;85.09
68556;HTU21D;55544;51.032;5.866;2023-08-08T05:38:14;14.70;84.83
68556;HTU21D;55544;51.032;5.866;2023-08-08T05:40:39;14.71;85.00
68556;HTU21D;55544;51.032;5.866;2023-08-08T05:43:05;14.75;85.09
68556;HTU21D;55544;51.032;5.866;2023-08-08T05:45:31;14.72;85.19
68556;HTU21D;55544;51.032;5.866;2023-08-08T05:47:57;14.77;85.32
68556;HTU21D;55544;51.032;5.866;2023-08-08T05:50:25;14.83;85.34
68556;HTU21D;55544;51.032;5.866;2023-08-08T05:52:50;14.88;84.97
68556;HTU21D;55544;51.032;5.866;2023-08-08T05:55:16;14.87;84.89
68556;HTU21D;55544;51.032;5.866;2023-08-08T05:57:42;14.91;85.01
68556;HTU21D;55544;51.032;5.866;2023-08-08T06:00:08;14.95;84.99
68556;HTU21D;55544;51.032;5.866;2023-08-08T06:02:39;14.97;85.09
68556;HTU21D;55544;51.032;5.866;2023-08-08T06:05:05;15.09;84.65
68556;HTU21D;55544;51.032;5.866;2023-08-08T06:07:31;15.08;84.86
68556;HTU21D;55544;51.032;5.866;2023-08-08T06:09:56;15.08;85.02
68556;HTU21D;55544;51.032;5.866;2023-08-08T06:12:22;15.21;85.09
68556;HTU21D;55544;51.032;5.866;2023-08-08T06:14:48;15.33;85.42
68556;HTU21D;55544;51.032;5.866;2023-08-08T06:17:14;15.47;84.81
68556;HTU21D;55544;51.032;5.866;2023-08-08T06:19:40;15.47;83.78
68556;HTU21D;55544;51.032;5.866;2023-08-08T06:22:06;15.46;83.52
68556;HTU21D;55544;51.032;5.866;2023-08-08T06:24:31;15.49;83.20
68556;HTU21D;55544;51.032;5.866;2023-08-08T06:26:57;15.49;83.29
68556;HTU21D;55544;51.032;5.866;2023-08-08T06:29:23;15.48;83.88
68556;HTU21D;55544;51.032;5.866;2023-08-08T06:31:48;15.51;83.78
68556;HTU21D;55544;51.032;5.866;2023-08-08T06:34:14;15.61;83.23
68556;HTU21D;55544;51.032;5.866;2023-08-08T06:36:40;15.66;83.28
68556;HTU21D;55544;51.032;5.866;2023-08-08T06:39:06;15.66;82.99
68556;HTU21D;55544;51.032;5.866;2023-08-08T06:41:32;15.72;83.19
68556;HTU21D;55544;51.032;5.866;2023-08-08T06:43:58;15.84;82.93
68556;HTU21D;55544;51.032;5.866;2023-08-08T06:46:24;15.85;82.39
68556;HTU21D;55544;51.032;5.866;2023-08-08T06:48:50;16.01;82.18
68556;HTU21D;55544;51.032;5.866;2023-08-08T06:51:18;16.04;81.84
68556;HTU21D;55544;51.032;5.866;2023-08-08T06:53:44;16.11;82.01
68556;HTU21D;55544;51.032;5.866;2023-08-08T06:56:10;16.19;81.28
68556;HTU21D;55544;51.032;5.866;2023-08-08T06:58:35;16.14;81.21
68556;HTU21D;55544;51.032;5.866;2023-08-08T07:01:02;16.24;81.15
68556;HTU21D;55544;51.032;5.866;2023-08-08T07:03:28;16.20;80.89
68556;HTU21D;55544;51.032;5.866;2023-08-08T07:05:53;16.22;81.06
68556;HTU21D;55544;51.032;5.866;2023-08-08T07:08:19;16.21;80.52
68556;HTU21D;55544;51.032;5.866;2023-08-08T07:10:45;16.15;81.07
68556;HTU21D;55544;51.032;5.866;2023-08-08T07:13:11;16.22;80.87
68556;HTU21D;55544;51.032;5.866;2023-08-08T07:15:37;16.30;80.88
68556;HTU21D;55544;51.032;5.866;2023-08-08T07:18:03;16.43;80.49
68556;HTU21D;55544;51.032;5.866;2023-08-08T07:20:29;16.51;80.49
68556;HTU21D;55544;51.032;5.866;2023-08-08T07:22:55;16.62;80.29
68556;HTU21D;55544;51.032;5.866;2023-08-08T07:25:21;16.74;79.94
68556;HTU21D;55544;51.032;5.866;2023-08-08T07:27:47;16.82;79.66
68556;HTU21D;55544;51.032;5.866;2023-08-08T07:30:12;16.90;79.18
68556;HTU21D;55544;51.032;5.866;2023-08-08T07:32:38;16.81;78.59
68556;HTU21D;55544;51.032;5.866;2023-08-08T07:35:05;16.84;78.71
68556;HTU21D;55544;51.032;5.866;2023-08-08T07:37:31;16.89;78.77
68556;HTU21D;55544;51.032;5.866;2023-08-08T07:39:58;16.87;78.61
68556;HTU21D;55544;51.032;5.866;2023-08-08T07:42:24;16.86;78.76
68556;HTU21D;55544;51.032;5.866;2023-08-08T07:44:49;16.84;78.34
68556;HTU21D;55544;51.032;5.866;2023-08-08T07:47:15;16.92;78.91
68556;HTU21D;55544;51.032;5.866;2023-08-08T07:49:41;17.04;78.12
68556;HTU21D;55544;51.032;5.866;2023-08-08T07:52:07;16.98;77.76
68556;HTU21D;55544;51.032;5.866;2023-08-08T07:54:34;16.98;77.95
68556;HTU21D;55544;51.032;5.866;2023-08-08T07:56:59;17.04;78.14
68556;HTU21D;55544;51.032;5.866;2023-08-08T07:59:25;17.10;77.39
68556;HTU21D;55544;51.032;5.866;2023-08-08T08:01:52;17.17;77.58
68556;HTU21D;55544;51.032;5.866;2023-08-08T08:04:17;17.20;77.66
68556;HTU21D;55544;51.032;5.866;2023-08-08T08:06:43;17.31;77.04
68556;HTU21D;55544;51.032;5.866;2023-08-08T08:09:09;17.35;77.05
68556;HTU21D;55544;51.032;5.866;2023-08-08T08:11:35;17.47;77.27
68556;HTU21D;55544;51.032;5.866;2023-08-08T08:14:01;17.60;77.07
68556;HTU21D;55544;51.032;5.866;2023-08-08T08:16:26;17.62;76.40
68556;HTU21D;55544;51.032;5.866;2023-08-08T08:18:52;17.72;75.97
68556;HTU21D;55544;51.032;5.866;2023-08-08T08:21:18;17.66;75.39
68556;HTU21D;55544;51.032;5.866;2023-08-08T08:23:44;17.61;75.84
68556;HTU21D;55544;51.032;5.866;2023-08-08T08:26:11;17.58;75.79
68556;HTU21D;55544;51.032;5.866;2023-08-08T08:28:37;17.64;76.11
68556;HTU21D;55544;51.032;5.866;2023-08-08T08:31:06;17.69;75.57
68556;HTU21D;55544;51.032;5.866;2023-08-08T08:33:32;17.69;75.93
68556;HTU21D;55544;51.032;5.866;2023-08-08T08:35:58;17.76;76.05
68556;HTU21D;55544;51.032;5.866;2023-08-08T08:38:23;17.93;75.80
68556;HTU21D;55544;51.032;5.866;2023-08-08T08:40:54;18.10;76.08
68556;HTU21D;55544;51.032;5.866;2023-08-08T08:43:21;18.34;74.60
68556;HTU21D;55544;51.032;5.866;2023-08-08T08:45:52;18.36;74.16
68556;HTU21D;55544;51.032;5.866;2023-08-08T08:48:18;18.47;74.86
68556;HTU21D;55544;51.032;5.866;2023-08-08T08:50:48;18.50;73.95
68556;HTU21D;55544;51.032;5.866;2023-08-08T08:53:14;18.50;73.38
68556;HTU21D;55544;51.032;5.866;2023-08-08T08:55:41;18.52;73.14
68556;HTU21D;55544;51.032;5.866;2023-08-08T08:58:07;18.50;73.28
68556;HTU21D;55544;51.032;5.866;2023-08-08T09:00:35;18.48;73.09
68556;HTU21D;55544;51.032;5.866;2023-08-08T09:03:03;18.49;72.89
68556;HTU21D;55544;51.032;5.866;2023-08-08T09:05:31;18.44;72.89
68556;HTU21D;55544;51.032;5.866;2023-08-08T09:07:58;18.52;73.10
68556;HTU21D;55544;51.032;5.866;2023-08-08T09:10:24;18.56;72.46
68556;HTU21D;55544;51.032;5.866;2023-08-08T09:12:50;18.58;72.35
68556;HTU21D;55544;51.032;5.866;2023-08-08T09:15:15;18.61;72.31
68556;HTU21D;55544;51.032;5.866;2023-08-08T09:17:42;18.55;72.19
68556;HTU21D;55544;51.032;5.866;2023-08-08T09:20:10;18.48;71.63
68556;HTU21D;55544;51.032;5.866;2023-08-08T09:22:38;18.53;72.51
68556;HTU21D;55544;51.032;5.866;2023-08-08T09:25:07;18.70;72.55
68556;HTU21D;55544;51.032;5.866;2023-08-08T09:27:34;18.73;71.80
68556;HTU21D;55544;51.032;5.866;2023-08-08T09:30:00;18.81;72.35
68556;HTU21D;55544;51.032;5.866;2023-08-08T09:32:31;18.82;71.73
68556;HTU21D;55544;51.032;5.866;2023-08-08T09:34:58;18.72;71.69
68556;HTU21D;55544;51.032;5.866;2023-08-08T09:37:23;18.57;71.06
68556;HTU21D;55544;51.032;5.866;2023-08-08T09:39:59;18.48;71.51
68556;HTU21D;55544;51.032;5.866;2023-08-08T09:42:27;18.40;71.41
68556;HTU21D;55544;51.032;5.866;2023-08-08T09:44:53;18.30;71.37
68556;HTU21D;55544;51.032;5.866;2023-08-08T09:47:21;18.36;71.22
68556;HTU21D;55544;51.032;5.866;2023-08-08T09:49:47;18.33;71.51
68556;HTU21D;55544;51.032;5.866;2023-08-08T09:52:15;18.34;71.44
68556;HTU21D;55544;51.032;5.866;2023-08-08T09:54:41;18.29;71.51
68556;HTU21D;55544;51.032;5.866;2023-08-08T09:57:07;18.28;71.48
68556;HTU21D;55544;51.032;5.866;2023-08-08T09:59:34;18.29;71.95
68556;HTU21D;55544;51.032;5.866;2023-08-08T10:02:01;18.29;72.25
68556;HTU21D;55544;51.032;5.866;2023-08-08T10:04:27;18.22;71.90
68556;HTU21D;55544;51.032;5.866;2023-08-08T10:06:53;18.21;71.81
68556;HTU21D;55544;51.032;5.866;2023-08-08T10:09:19;18.28;71.40
68556;HTU21D;55544;51.032;5.866;2023-08-08T10:11:47;18.28;71.10
68556;HTU21D;55544;51.032;5.866;2023-08-08T10:14:13;18.32;71.16
68556;HTU21D;55544;51.032;5.866;2023-08-08T10:16:43;18.41;69.42
68556;HTU21D;55544;51.032;5.866;2023-08-08T10:19:12;18.54;69.13
68556;HTU21D;55544;51.032;5.866;2023-08-08T10:21:43;18.53;69.49
68556;HTU21D;55544;51.032;5.866;2023-08-08T10:24:10;18.78;68.62
68556;HTU21D;55544;51.032;5.866;2023-08-08T10:29:19;19.09;67.89
68556;HTU21D;55544;51.032;5.866;2023-08-08T10:32:03;19.25;67.45
68556;HTU21D;55544;51.032;5.866;2023-08-08T10:34:44;19.53;67.41
68556;HTU21D;55544;51.032;5.866;2023-08-08T10:37:12;19.74;66.30
68556;HTU21D;55544;51.032;5.866;2023-08-08T10:39:50;19.83;64.66
68556;HTU21D;55544;51.032;5.866;2023-08-08T10:42:19;19.76;64.20
68556;HTU21D;55544;51.032;5.866;2023-08-08T10:44:51;19.75;62.99
68556;HTU21D;55544;51.032;5.866;2023-08-08T10:47:26;19.90;64.00
68556;HTU21D;55544;51.032;5.866;2023-08-08T10:49:58;20.22;61.92
68556;HTU21D;55544;51.032;5.866;2023-08-08T10:52:24;20.33;61.46
68556;HTU21D;55544;51.032;5.866;2023-08-08T10:54:53;20.39;62.04
68556;HTU21D;55544;51.032;5.866;2023-08-08T10:57:24;20.29;62.41
68556;HTU21D;55544;51.032;5.866;2023-08-08T10:59:50;20.10;60.89
68556;HTU21D;55544;51.032;5.866;2023-08-08T11:02:18;19.95;61.09
68556;HTU21D;55544;51.032;5.866;2023-08-08T11:04:44;19.75;61.81
68556;HTU21D;55544;51.032;5.866;2023-08-08T11:07:10;19.58;60.71
68556;HTU21D;55544;51.032;5.866;2023-08-08T11:09:36;19.67;61.46
68556;HTU21D;55544;51.032;5.866;2023-08-08T11:12:02;19.82;62.52
68556;HTU21D;55544;51.032;5.866;2023-08-08T11:14:28;19.94;60.85
68556;HTU21D;55544;51.032;5.866;2023-08-08T11:16:54;20.14;62.02
68556;HTU21D;55544;51.032;5.866;2023-08-08T11:19:20;20.34;61.15
68556;HTU21D;55544;51.032;5.866;2023-08-08T11:21:47;20.40;60.71
68556;HTU21D;55544;51.032;5.866;2023-08-08T11:24:14;20.34;61.02
68556;HTU21D;55544;51.032;5.866;2023-08-08T11:26:41;20.26;61.30
68556;HTU21D;55544;51.032;5.866;2023-08-08T11:29:07;20.45;60.94
68556;HTU21D;55544;51.032;5.866;2023-08-08T11:31:34;20.72;60.74
68556;HTU21D;55544;51.032;5.866;2023-08-08T11:34:00;20.84;58.58
68556;HTU21D;55544;51.032;5.866;2023-08-08T11:36:30;20.95;60.26
68556;HTU21D;55544;51.032;5.866;2023-08-08T11:38:57;20.93;58.49
68556;HTU21D;55544;51.032;5.866;2023-08-08T11:41:24;20.68;59.35
68556;HTU21D;55544;51.032;5.866;2023-08-08T11:43:52;20.29;59.00
68556;HTU21D;55544;51.032;5.866;2023-08-08T11:46:22;19.96;59.06
68556;HTU21D;55544;51.032;5.866;2023-08-08T11:48:48;19.76;60.05
68556;HTU21D;55544;51.032;5.866;2023-08-08T11:51:15;19.60;60.64
68556;HTU21D;55544;51.032;5.866;2023-08-08T11:53:49;19.43;61.21
68556;HTU21D;55544;51.032;5.866;2023-08-08T11:56:20;19.42;62.29
68556;HTU21D;55544;51.032;5.866;2023-08-08T11:58:49;19.41;62.74
68556;HTU21D;55544;51.032;5.866;2023-08-08T12:01:15;19.52;62.84
68556;HTU21D;55544;51.032;5.866;2023-08-08T12:03:41;19.71;63.05
68556;HTU21D;55544;51.032;5.866;2023-08-08T12:06:14;19.86;62.85
68556;HTU21D;55544;51.032;5.866;2023-08-08T12:08:44;20.06;62.63
68556;HTU21D;55544;51.032;5.866;2023-08-08T12:11:11;20.17;62.92
68556;HTU21D;55544;51.032;5.866;2023-08-08T12:13:43;20.30;62.41
68556;HTU21D;55544;51.032;5.866;2023-08-08T12:16:11;20.51;62.53
68556;HTU21D;55544;51.032;5.866;2023-08-08T12:18:38;20.53;61.11
68556;HTU21D;55544;51.032;5.866;2023-08-08T12:21:05;20.33;60.67
68556;HTU21D;55544;51.032;5.866;2023-08-08T12:23:32;20.04;60.88
68556;HTU21D;55544;51.032;5.866;2023-08-08T12:25:58;19.84;62.16
68556;HTU21D;55544;51.032;5.866;2023-08-08T12:28:25;19.70;63.05
68556;HTU21D;55544;51.032;5.866;2023-08-08T12:30:50;19.81;64.37
68556;HTU21D;55544;51.032;5.866;2023-08-08T12:33:16;19.87;64.70
68556;HTU21D;55544;51.032;5.866;2023-08-08T12:35:42;19.84;64.53
68556;HTU21D;55544;51.032;5.866;2023-08-08T12:38:07;19.85;63.89
68556;HTU21D;55544;51.032;5.866;2023-08-08T12:40:33;19.83;64.08
68556;HTU21D;55544;51.032;5.866;2023-08-08T12:42:59;19.85;63.76
68556;HTU21D;55544;51.032;5.866;2023-08-08T12:45:25;20.13;64.03
68556;HTU21D;55544;51.032;5.866;2023-08-08T12:47:51;20.39;64.29
68556;HTU21D;55544;51.032;5.866;2023-08-08T12:50:16;20.58;63.57
68556;HTU21D;55544;51.032;5.866;2023-08-08T12:52:42;20.78;63.18
68556;HTU21D;55544;51.032;5.866;2023-08-08T12:55:08;21.14;62.79
68556;HTU21D;55544;51.032;5.866;2023-08-08T12:57:36;21.37;60.73
68556;HTU21D;55544;51.032;5.866;2023-08-08T13:00:03;21.47;59.38
68556;HTU21D;55544;51.032;5.866;2023-08-08T13:02:28;21.61;60.13
68556;HTU21D;55544;51.032;5.866;2023-08-08T13:04:54;21.60;59.16
68556;HTU21D;55544;51.032;5.866;2023-08-08T13:07:20;21.34;59.59
68556;HTU21D;55544;51.032;5.866;2023-08-08T13:09:45;21.20;59.57
68556;HTU21D;55544;51.032;5.866;2023-08-08T13:12:11;21.15;60.02
68556;HTU21D;55544;51.032;5.866;2023-08-08T13:14:37;21.25;60.99
68556;HTU21D;55544;51.032;5.866;2023-08-08T13:17:03;21.20;59.07
68556;HTU21D;55544;51.032;5.866;2023-08-08T13:19:29;21.00;59.29
68556;HTU21D;55544;51.032;5.866;2023-08-08T13:21:55;20.80;60.41
68556;HTU21D;55544;51.032;5.866;2023-08-08T13:24:21;20.78;61.03
68556;HTU21D;55544;51.032;5.866;2023-08-08T13:26:49;21.03;61.25
68556;HTU21D;55544;51.032;5.866;2023-08-08T13:29:15;21.48;60.02
68556;HTU21D;55544;51.032;5.866;2023-08-08T13:31:41;21.66;57.99
68556;HTU21D;55544;51.032;5.866;2023-08-08T13:34:06;21.85;58.76
68556;HTU21D;55544;51.032;5.866;2023-08-08T13:36:32;22.11;58.21
68556;HTU21D;55544;51.032;5.866;2023-08-08T13:38:58;22.40;57.63
68556;HTU21D;55544;51.032;5.866;2023-08-08T13:41:24;22.53;54.66
68556;HTU21D;55544;51.032;5.866;2023-08-08T13:43:50;22.50;54.11
68556;HTU21D;55544;51.032;5.866;2023-08-08T13:46:16;22.49;53.74
68556;HTU21D;55544;51.032;5.866;2023-08-08T13:48:42;22.63;52.24
68556;HTU21D;55544;51.032;5.866;2023-08-08T13:51:07;22.51;52.00
68556;HTU21D;55544;51.032;5.866;2023-08-08T13:53:33;22.13;53.52
68556;HTU21D;55544;51.032;5.866;2023-08-08T13:56:00;22.05;54.17
68556;HTU21D;55544;51.032;5.866;2023-08-08T13:58:25;22.09;54.67
68556;HTU21D;55544;51.032;5.866;2023-08-08T14:00:51;22.34;53.45
68556;HTU21D;55544;51.032;5.866;2023-08-08T14:03:18;22.47;53.50
68556;HTU21D;55544;51.032;5.866;2023-08-08T14:05:44;22.44;52.71
68556;HTU21D;55544;51.032;5.866;2023-08-08T14:08:10;22.41;52.29
68556;HTU21D;55544;51.032;5.866;2023-08-08T14:10:36;22.24;52.31
68556;HTU21D;55544;51.032;5.866;2023-08-08T14:13:03;22.09;52.66
68556;HTU21D;55544;51.032;5.866;2023-08-08T14:15:28;22.16;52.71
68556;HTU21D;55544;51.032;5.866;2023-08-08T14:18:06;22.60;50.86
68556;HTU21D;55544;51.032;5.866;2023-08-08T14:20:32;22.76;51.01
68556;HTU21D;55544;51.032;5.866;2023-08-08T14:22:58;22.86;49.72
68556;HTU21D;55544;51.032;5.866;2023-08-08T14:25:23;23.03;50.46
68556;HTU21D;55544;51.032;5.866;2023-08-08T14:27:49;23.25;48.98
68556;HTU21D;55544;51.032;5.866;2023-08-08T14:30:16;23.31;48.03
68556;HTU21D;55544;51.032;5.866;2023-08-08T14:32:41;23.30;47.72
68556;HTU21D;55544;51.032;5.866;2023-08-08T14:35:07;23.26;47.51
68556;HTU21D;55544;51.032;5.866;2023-08-08T14:37:35;23.23;46.03
68556;HTU21D;55544;51.032;5.866;2023-08-08T14:40:01;23.18;47.63
68556;HTU21D;55544;51.032;5.866;2023-08-08T14:42:28;22.87;48.18
68556;HTU21D;55544;51.032;5.866;2023-08-08T14:44:54;22.61;48.96
68556;HTU21D;55544;51.032;5.866;2023-08-08T14:47:20;22.53;49.92
68556;HTU21D;55544;51.032;5.866;2023-08-08T14:49:45;22.78;50.11
68556;HTU21D;55544;51.032;5.866;2023-08-08T14:52:12;23.09;49.79
68556;HTU21D;55544;51.032;5.866;2023-08-08T14:54:39;23.26;51.41
68556;HTU21D;55544;51.032;5.866;2023-08-08T14:57:05;23.36;49.98
68556;HTU21D;55544;51.032;5.866;2023-08-08T14:59:31;23.15;48.74
68556;HTU21D;55544;51.032;5.866;2023-08-08T15:01:57;22.77;49.15
68556;HTU21D;55544;51.032;5.866;2023-08-08T15:04:23;22.41;49.88
68556;HTU21D;55544;51.032;5.866;2023-08-08T15:06:48;22.18;50.92
68556;HTU21D;55544;51.032;5.866;2023-08-08T15:09:14;22.20;51.69
68556;HTU21D;55544;51.032;5.866;2023-08-08T15:11:39;22.13;52.75
68556;HTU21D;55544;51.032;5.866;2023-08-08T15:14:06;22.14;52.96
68556;HTU21D;55544;51.032;5.866;2023-08-08T15:16:32;22.14;52.49
68556;HTU21D;55544;51.032;5.866;2023-08-08T15:18:58;22.23;51.41